Time;durP1;ratioP1;P1;durP2;ratioP2;P2;SDS_P1;SDS_P2;PMS_P1;PMS_P2;Temp;Humidity;BMP_temperature;BMP_pressure;BME280_temperature;BME280_humidity;BME280_pressure;Samples;Min_cycle;Max_cycle;Signal;HPM_P1;HPM_P2
2024/02/23 00:00:35;;;;;;;2.03;1.40;;;;;;;19.44;52.95;95344.84;5012851;28;20254;-25
2024/02/23 00:03:02;;;;;;;1.60;1.50;;;;;;;19.44;52.94;95335.50;5006330;28;20307;-27
2024/02/23 00:05:29;;;;;;;1.40;1.30;;;;;;;19.44;52.93;95340.59;5010672;28;20214;-25
2024/02/23 00:07:55;;;;;;;1.90;1.50;;;;;;;19.45;52.84;95336.38;5016947;28;20222;-25
2024/02/23 00:10:22;;;;;;;1.40;1.30;;;;;;;19.42;52.90;95344.00;5011691;28;20207;-25
2024/02/23 00:12:49;;;;;;;1.50;1.40;;;;;;;19.44;52.78;95365.22;5011501;28;20300;-26
2024/02/23 00:15:15;;;;;;;1.60;1.50;;;;;;;19.41;52.69;95371.16;5011068;28;20582;-25
2024/02/23 00:17:42;;;;;;;3.43;1.40;;;;;;;19.41;53.27;95381.34;5004635;28;20238;-25
2024/02/23 00:20:12;;;;;;;1.37;1.27;;;;;;;19.42;53.00;95379.66;5008625;28;20234;-25
2024/02/23 00:22:38;;;;;;;1.60;1.50;;;;;;;19.42;52.94;95388.13;5005747;28;20261;-25
2024/02/23 00:25:05;;;;;;;1.80;1.40;;;;;;;19.42;52.82;95392.41;5008284;28;20584;-26
2024/02/23 00:27:32;;;;;;;1.50;1.40;;;;;;;19.43;52.63;95387.31;5006809;28;20771;-25
2024/02/23 00:29:59;;;;;;;1.60;1.50;;;;;;;19.43;52.99;95389.84;5012311;28;20311;-25
2024/02/23 00:32:25;;;;;;;1.80;1.50;;;;;;;19.38;53.15;95393.19;5011908;28;20242;-25
2024/02/23 00:34:52;;;;;;;1.50;1.40;;;;;;;19.41;52.98;95405.94;5011730;28;20206;-25
2024/02/23 00:37:19;;;;;;;1.87;1.57;;;;;;;19.42;53.06;95411.06;5018326;28;20275;-25
2024/02/23 00:39:45;;;;;;;1.50;1.40;;;;;;;19.41;53.13;95411.91;5011842;28;20276;-25
2024/02/23 00:42:12;;;;;;;1.40;1.30;;;;;;;19.42;52.96;95416.16;5007586;28;20222;-28
2024/02/23 00:44:38;;;;;;;3.03;1.50;;;;;;;19.42;52.92;95412.78;5020199;28;20206;-25
2024/02/23 00:47:05;;;;;;;2.03;1.40;;;;;;;19.42;53.01;95433.16;5009540;28;20222;-25
2024/02/23 00:49:32;;;;;;;1.90;1.30;;;;;;;19.41;52.97;95432.28;5012056;28;20209;-25
2024/02/23 00:51:58;;;;;;;1.47;1.37;;;;;;;19.41;53.07;95442.47;5010648;28;20277;-25
2024/02/23 00:54:25;;;;;;;1.60;1.50;;;;;;;19.43;52.96;95450.13;5011783;28;20260;-25
2024/02/23 00:56:52;;;;;;;2.73;1.30;;;;;;;19.42;52.99;95456.06;5009620;28;20222;-25
2024/02/23 00:59:22;;;;;;;1.73;1.50;;;;;;;19.44;53.33;95459.44;5011713;28;20213;-28
2024/02/23 01:01:49;;;;;;;2.27;1.40;;;;;;;19.41;52.99;95452.66;5012055;28;20253;-31
2024/02/23 01:04:16;;;;;;;1.50;1.40;;;;;;;19.44;52.71;95455.22;5010078;28;20289;-26
2024/02/23 01:06:42;;;;;;;2.10;1.40;;;;;;;19.43;53.03;95471.34;5006904;28;20668;-29
2024/02/23 01:09:09;;;;;;;1.57;1.47;;;;;;;19.43;52.85;95470.50;5010070;28;20261;-26
2024/02/23 01:11:36;;;;;;;1.40;1.30;;;;;;;19.44;52.89;95474.72;5010337;28;20209;-25
2024/02/23 01:14:02;;;;;;;2.27;1.43;;;;;;;19.42;52.94;95482.38;5010526;28;20206;-25
2024/02/23 01:16:29;;;;;;;5.03;1.40;;;;;;;19.42;52.91;95492.56;5011904;28;20234;-26
2024/02/23 01:18:55;;;;;;;1.63;1.30;;;;;;;19.40;53.36;95485.75;5001149;28;20210;-25
2024/02/23 01:21:22;;;;;;;1.73;1.30;;;;;;;19.41;52.83;95510.38;5014198;28;20225;-25
2024/02/23 01:23:49;;;;;;;1.50;1.40;;;;;;;19.41;52.92;95552.00;5017041;28;20628;-25
2024/02/23 01:26:15;;;;;;;1.33;1.27;;;;;;;19.40;53.01;95552.84;5010169;28;20209;-27
2024/02/23 01:28:42;;;;;;;1.37;1.23;;;;;;;19.43;52.85;95568.16;5003310;28;20550;-25
2024/02/23 01:31:13;;;;;;;1.40;1.30;;;;;;;19.44;52.94;95580.03;5005751;28;20198;-25
2024/02/23 01:33:39;;;;;;;1.40;1.30;;;;;;;19.43;53.20;95587.66;5011344;28;20206;-26
2024/02/23 01:36:06;;;;;;;1.93;1.40;;;;;;;19.42;52.98;95603.78;5011532;28;20213;-25
2024/02/23 01:38:33;;;;;;;1.30;1.20;;;;;;;19.40;52.98;95602.91;5017785;28;20237;-25
2024/02/23 01:41:00;;;;;;;1.40;1.30;;;;;;;19.43;52.79;95613.13;5008482;28;20213;-26
2024/02/23 01:43:27;;;;;;;1.67;1.20;;;;;;;19.43;52.98;95602.94;5010641;28;20213;-25
2024/02/23 01:45:53;;;;;;;1.93;1.30;;;;;;;19.43;53.06;95606.34;5011617;28;20207;-25
2024/02/23 01:48:20;;;;;;;1.57;1.20;;;;;;;19.43;52.71;95608.91;5000528;28;20772;-27
2024/02/23 01:50:47;;;;;;;1.50;1.40;;;;;;;19.40;52.95;95616.53;4994189;28;20210;-25
2024/02/23 01:53:13;;;;;;;1.40;1.30;;;;;;;19.41;52.91;95618.22;5010666;28;20206;-25
2024/02/23 01:55:41;;;;;;;1.40;1.30;;;;;;;19.41;52.97;95623.31;5002633;28;20260;-25
2024/02/23 01:58:07;;;;;;;2.20;1.20;;;;;;;19.41;53.32;95617.34;5009126;28;20313;-26
2024/02/23 02:00:34;;;;;;;1.40;1.30;;;;;;;19.41;52.86;95599.53;5007822;28;20222;-25
2024/02/23 02:03:01;;;;;;;3.10;1.40;;;;;;;19.42;53.17;95602.06;5014854;28;20296;-26
2024/02/23 02:05:28;;;;;;;1.10;1.10;;;;;;;19.42;53.28;95614.81;5012277;28;20225;-25
2024/02/23 02:07:58;;;;;;;1.40;1.30;;;;;;;19.40;53.00;95618.19;5001007;28;20222;-27
2024/02/23 02:10:26;;;;;;;1.23;1.13;;;;;;;19.42;52.72;95613.97;5006383;28;20256;-25
2024/02/23 02:12:53;;;;;;;1.63;1.20;;;;;;;19.41;52.96;95620.75;5001799;28;20230;-25
2024/02/23 02:15:21;;;;;;;1.30;1.20;;;;;;;19.41;52.99;95612.25;5005227;28;20278;-25
2024/02/23 02:17:48;;;;;;;1.33;1.23;;;;;;;19.42;52.77;95613.97;5003289;28;20261;-25
2024/02/23 02:20:15;;;;;;;1.30;1.20;;;;;;;19.42;52.81;95608.88;5013203;28;20240;-30
2024/02/23 02:22:42;;;;;;;1.20;1.10;;;;;;;19.42;52.55;95624.16;4992700;28;20716;-27
2024/02/23 02:25:08;;;;;;;1.30;1.20;;;;;;;19.40;52.80;95625.84;5010008;28;20199;-25
2024/02/23 02:27:36;;;;;;;1.47;1.37;;;;;;;19.40;52.88;95633.47;5006724;28;20237;-25
2024/02/23 02:30:02;;;;;;;1.27;1.17;;;;;;;19.41;52.90;95637.72;5010520;28;20230;-27
2024/02/23 02:32:29;;;;;;;1.13;1.13;;;;;;;19.40;53.06;95636.03;5010861;28;20198;-25
2024/02/23 02:35:02;;;;;;;1.23;1.13;;;;;;;19.40;52.95;95649.63;5012940;28;20199;-26
2024/02/23 02:37:29;;;;;;;1.43;1.23;;;;;;;19.41;52.98;95660.66;5010687;28;20218;-25
2024/02/23 02:39:55;;;;;;;1.20;1.10;;;;;;;19.41;52.99;95663.19;5013041;28;20260;-25
2024/02/23 02:42:22;;;;;;;1.37;1.27;;;;;;;19.42;52.67;95667.47;5030015;28;20946;-25
2024/02/23 02:44:49;;;;;;;1.30;1.20;;;;;;;19.41;52.98;95673.38;5013748;28;20223;-25
2024/02/23 02:47:15;;;;;;;1.30;1.20;;;;;;;19.41;52.87;95660.66;5011296;28;20305;-27
2024/02/23 02:49:42;;;;;;;1.27;1.20;;;;;;;19.41;53.13;95658.09;5005246;28;20712;-25
2024/02/23 02:52:08;;;;;;;1.20;1.10;;;;;;;19.40;52.88;95654.72;5014786;28;20204;-30
2024/02/23 02:54:35;;;;;;;1.17;1.17;;;;;;;19.41;52.98;95658.09;5012703;28;20207;-29
2024/02/23 02:57:01;;;;;;;1.40;1.30;;;;;;;19.39;52.86;95659.81;5006428;28;20740;-25
2024/02/23 02:59:28;;;;;;;1.53;1.20;;;;;;;19.39;53.10;95663.19;5009668;28;20206;-25
2024/02/23 03:01:57;;;;;;;1.30;1.20;;;;;;;19.38;52.93;95665.72;5013369;28;20305;-25
2024/02/23 03:04:23;;;;;;;1.20;1.10;;;;;;;19.38;52.88;95679.31;5010414;28;20676;-25
2024/02/23 03:06:50;;;;;;;1.30;1.20;;;;;;;19.38;52.77;95679.31;5012939;28;20336;-25
2024/02/23 03:09:16;;;;;;;1.30;1.20;;;;;;;19.39;53.05;95683.56;5013241;28;20287;-25
2024/02/23 03:11:43;;;;;;;1.00;1.00;;;;;;;19.40;52.45;95679.34;5011855;28;20191;-29
2024/02/23 03:14:10;;;;;;;1.30;1.20;;;;;;;19.41;52.79;95668.28;5013045;28;20506;-25
2024/02/23 03:16:37;;;;;;;1.37;1.27;;;;;;;19.39;52.44;95681.00;5013872;28;20331;-25
2024/02/23 03:19:04;;;;;;;1.20;1.10;;;;;;;19.39;52.91;95682.72;5009412;28;20210;-26
2024/02/23 03:21:30;;;;;;;1.30;1.20;;;;;;;19.40;52.73;95687.84;5013363;28;20229;-25
2024/02/23 03:23:57;;;;;;;1.13;1.03;;;;;;;19.39;52.74;95688.66;5007810;28;20257;-25
2024/02/23 03:26:24;;;;;;;1.40;1.30;;;;;;;19.38;52.75;95688.66;5013305;28;20202;-25
2024/02/23 03:28:50;;;;;;;1.30;1.30;;;;;;;19.34;52.85;95675.06;5004098;28;20559;-25
2024/02/23 03:31:17;;;;;;;1.40;1.20;;;;;;;19.39;52.96;95682.72;5014268;28;20285;-25
2024/02/23 03:33:43;;;;;;;1.20;1.10;;;;;;;19.38;53.16;95686.97;5010461;28;20276;-25
2024/02/23 03:36:10;;;;;;;1.30;1.20;;;;;;;19.38;52.68;95681.88;5000717;28;20203;-26
2024/02/23 03:38:37;;;;;;;1.30;1.20;;;;;;;19.39;52.82;95683.56;5012019;28;20269;-26
2024/02/23 03:41:03;;;;;;;1.30;1.20;;;;;;;19.40;52.83;95690.38;5012650;28;20198;-25
2024/02/23 03:43:30;;;;;;;1.10;1.10;;;;;;;19.41;52.71;95689.53;5010464;28;20218;-25
2024/02/23 03:46:00;;;;;;;1.30;1.20;;;;;;;19.42;52.54;95695.50;5010672;28;20202;-25
2024/02/23 03:48:26;;;;;;;1.10;1.10;;;;;;;19.41;52.69;95679.34;5012328;28;20218;-26
2024/02/23 03:50:54;;;;;;;1.30;1.20;;;;;;;19.43;52.73;95681.91;5013317;28;20237;-26
2024/02/23 03:53:20;;;;;;;1.50;1.40;;;;;;;19.43;52.75;95672.59;5006618;28;20202;-25
2024/02/23 03:55:47;;;;;;;1.00;1.00;;;;;;;19.44;52.81;95670.88;5011812;28;20208;-28
2024/02/23 03:58:14;;;;;;;1.30;1.20;;;;;;;19.45;52.65;95672.59;5010032;28;20225;-25
2024/02/23 04:00:40;;;;;;;1.40;1.30;;;;;;;19.46;53.13;95664.09;5004505;28;20260;-26
2024/02/23 04:03:07;;;;;;;1.10;1.10;;;;;;;19.44;52.00;95653.91;5011898;28;20226;-25
2024/02/23 04:05:33;;;;;;;1.13;1.07;;;;;;;19.45;52.69;95657.31;5011261;28;20202;-26
2024/02/23 04:08:00;;;;;;;1.20;1.10;;;;;;;19.45;52.75;95657.31;5011937;28;20225;-25
2024/02/23 04:10:27;;;;;;;1.20;1.20;;;;;;;19.44;52.36;95659.00;5006268;28;20203;-25
2024/02/23 04:12:53;;;;;;;1.10;1.10;;;;;;;19.45;52.79;95664.94;5010213;28;20202;-25
2024/02/23 04:15:20;;;;;;;1.20;1.20;;;;;;;19.45;52.91;95664.94;5012356;28;20202;-31
2024/02/23 04:17:47;;;;;;;1.30;1.20;;;;;;;19.44;52.76;95668.31;5004767;28;20317;-25
2024/02/23 04:20:14;;;;;;;1.10;1.10;;;;;;;19.41;52.82;95668.28;5008908;28;20229;-25
2024/02/23 04:22:41;;;;;;;1.20;1.10;;;;;;;19.45;52.86;95685.34;5011172;28;20225;-25
2024/02/23 04:25:08;;;;;;;1.10;1.00;;;;;;;19.39;52.81;95675.91;5011033;28;20252;-26
2024/02/23 04:27:34;;;;;;;1.30;1.20;;;;;;;19.44;52.49;95692.09;5010653;28;20337;-26
2024/02/23 04:30:02;;;;;;;1.20;1.20;;;;;;;19.43;52.78;95692.09;5006799;28;20599;-25
2024/02/23 04:32:28;;;;;;;1.00;1.00;;;;;;;19.45;52.65;95700.63;5010785;28;20194;-27
2024/02/23 04:34:55;;;;;;;1.20;1.20;;;;;;;19.45;52.59;95698.91;5014838;28;20209;-25
2024/02/23 04:37:22;;;;;;;1.30;1.20;;;;;;;19.43;52.66;95695.50;5013854;28;20634;-25
2024/02/23 04:39:48;;;;;;;1.20;1.10;;;;;;;19.45;52.88;95708.25;5010753;28;20229;-25
2024/02/23 04:42:15;;;;;;;1.10;1.10;;;;;;;19.45;52.90;95696.34;5012194;28;20779;-25
2024/02/23 04:44:42;;;;;;;0.90;0.90;;;;;;;19.45;52.76;95698.06;5012186;28;20210;-26
2024/02/23 04:47:09;;;;;;;1.33;1.20;;;;;;;19.45;52.52;95706.53;5009919;28;20250;-27
2024/02/23 04:49:36;;;;;;;1.10;1.10;;;;;;;19.45;52.69;95696.34;5014051;28;20198;-25
2024/02/23 04:52:02;;;;;;;1.03;1.03;;;;;;;19.41;52.64;95675.94;5012409;28;20248;-25
2024/02/23 04:54:29;;;;;;;1.17;1.17;;;;;;;19.45;52.32;95690.41;5011707;28;20252;-25
2024/02/23 04:56:55;;;;;;;1.20;1.10;;;;;;;19.45;52.68;95696.34;5009664;28;20256;-25
2024/02/23 04:59:22;;;;;;;1.00;1.00;;;;;;;19.46;52.76;95702.31;5009103;28;20665;-30
2024/02/23 05:01:49;;;;;;;1.20;1.10;;;;;;;19.46;52.97;95695.53;5006643;28;20241;-25
2024/02/23 05:04:16;;;;;;;1.00;1.00;;;;;;;19.45;52.58;95691.25;5006724;28;20293;-30
2024/02/23 05:06:43;;;;;;;1.13;1.07;;;;;;;19.44;52.68;95688.69;5010887;28;20593;-25
2024/02/23 05:09:10;;;;;;;1.17;1.13;;;;;;;19.44;52.92;95681.91;5009573;28;20195;-34
2024/02/23 05:11:37;;;;;;;1.30;1.20;;;;;;;19.46;52.78;95674.28;5008443;28;20280;-25
2024/02/23 05:14:04;;;;;;;1.27;1.20;;;;;;;19.46;52.68;95684.47;5011104;28;20201;-26
2024/02/23 05:16:30;;;;;;;1.30;1.20;;;;;;;19.46;52.22;95679.38;5011026;28;20226;-25
2024/02/23 05:18:57;;;;;;;1.10;1.10;;;;;;;19.46;52.75;95674.28;5007142;28;20425;-25
2024/02/23 05:21:25;;;;;;;1.03;1.03;;;;;;;19.45;52.79;95672.59;5002260;28;20203;-25
2024/02/23 05:23:52;;;;;;;1.00;1.00;;;;;;;19.38;52.80;95666.59;5004537;28;20222;-25
2024/02/23 05:26:19;;;;;;;0.90;0.90;;;;;;;19.45;52.60;95677.69;5006316;28;20294;-25
2024/02/23 05:28:45;;;;;;;1.00;1.00;;;;;;;19.45;52.69;95672.59;5006115;28;20202;-25
2024/02/23 05:31:12;;;;;;;1.27;1.20;;;;;;;19.45;52.08;95680.22;5006893;28;20222;-26
2024/02/23 05:33:38;;;;;;;1.10;1.10;;;;;;;19.46;52.69;95687.03;5010752;28;20202;-26
2024/02/23 05:36:06;;;;;;;1.10;1.10;;;;;;;19.46;52.90;95687.03;5010348;28;20203;-26
2024/02/23 05:38:32;;;;;;;0.97;0.97;;;;;;;19.46;52.81;95685.34;5010060;28;20198;-25
2024/02/23 05:40:59;;;;;;;0.90;0.90;;;;;;;19.46;52.65;95685.34;5007826;28;20198;-25
2024/02/23 05:43:25;;;;;;;1.10;1.10;;;;;;;19.45;52.44;95703.16;5007024;28;20682;-26
2024/02/23 05:45:54;;;;;;;1.20;1.10;;;;;;;19.45;52.20;95708.25;5011030;28;20215;-25
2024/02/23 05:48:20;;;;;;;1.23;1.20;;;;;;;19.45;52.54;95709.09;5013757;28;20226;-25
2024/02/23 05:50:47;;;;;;;1.00;1.00;;;;;;;19.45;52.76;95709.09;5012363;28;20226;-25
2024/02/23 05:53:13;;;;;;;1.27;1.17;;;;;;;19.45;52.46;95714.19;5009438;28;20190;-26
2024/02/23 05:55:40;;;;;;;1.10;1.10;;;;;;;19.44;52.67;95719.25;5009925;28;20205;-25
2024/02/23 05:58:07;;;;;;;1.30;1.20;;;;;;;19.46;52.57;95717.59;5010709;28;20708;-27
2024/02/23 06:00:34;;;;;;;1.17;1.17;;;;;;;19.45;52.54;95726.91;5010550;28;20202;-25
2024/02/23 06:03:00;;;;;;;1.00;1.00;;;;;;;19.40;52.58;95727.72;5007871;28;20250;-25
2024/02/23 06:05:27;;;;;;;1.17;1.13;;;;;;;19.45;52.68;95746.47;5011119;28;20210;-36
2024/02/23 06:07:55;;;;;;;1.10;1.10;;;;;;;19.42;52.82;95748.97;5010506;28;20301;-26
2024/02/23 06:10:22;;;;;;;1.10;1.10;;;;;;;19.42;52.64;95756.63;5011144;28;20198;-25
2024/02/23 06:12:48;;;;;;;1.20;1.10;;;;;;;19.42;51.10;95774.47;5015231;28;20483;-25
2024/02/23 06:15:15;;;;;;;2.30;1.30;;;;;;;19.40;50.61;95761.72;5015342;28;20206;-26
2024/02/23 06:17:41;;;;;;;1.30;1.20;;;;;;;19.40;49.09;95760.84;5014707;28;20296;-25
2024/02/23 06:20:09;;;;;;;1.30;1.20;;;;;;;19.39;48.30;95765.06;5015033;28;20684;-25
2024/02/23 06:22:36;;;;;;;1.03;1.03;;;;;;;19.40;47.80;95761.72;5014919;28;20697;-25
2024/02/23 06:25:03;;;;;;;1.23;0.90;;;;;;;19.40;47.82;95766.78;5014617;28;20198;-25
2024/02/23 06:27:29;;;;;;;1.10;1.10;;;;;;;19.40;48.16;95768.47;5013319;28;20226;-25
2024/02/23 06:29:56;;;;;;;1.30;1.20;;;;;;;19.41;48.39;95778.69;5012346;28;20253;-25
2024/02/23 06:32:23;;;;;;;1.20;1.00;;;;;;;19.42;48.16;95782.94;5011034;28;20230;-25
2024/02/23 06:34:49;;;;;;;1.90;1.17;;;;;;;19.41;48.17;95786.31;5007129;28;20202;-27
2024/02/23 06:37:16;;;;;;;1.20;1.10;;;;;;;19.40;47.75;95791.41;5008833;28;20222;-25
2024/02/23 06:39:44;;;;;;;1.80;1.00;;;;;;;19.42;48.77;95787.19;5015789;28;20207;-25
2024/02/23 06:42:10;;;;;;;1.40;1.30;;;;;;;19.42;49.50;95790.56;5011391;28;20203;-25
2024/02/23 06:44:37;;;;;;;1.30;1.20;;;;;;;19.39;49.44;95793.09;5013791;28;20285;-25
2024/02/23 06:47:04;;;;;;;1.10;1.00;;;;;;;19.39;49.75;95792.25;5015589;28;20218;-26
2024/02/23 06:49:31;;;;;;;0.97;0.97;;;;;;;19.39;50.36;95802.44;5014645;28;20553;-25
2024/02/23 06:51:57;;;;;;;2.57;1.20;;;;;;;19.38;50.29;95806.69;5012078;28;20206;-25
2024/02/23 06:54:24;;;;;;;1.10;1.10;;;;;;;19.38;49.77;95805.81;5013945;28;20268;-25
2024/02/23 06:56:50;;;;;;;1.30;1.10;;;;;;;19.39;49.59;95807.53;5013810;28;20254;-25
2024/02/23 06:59:17;;;;;;;1.30;1.20;;;;;;;19.40;50.31;95802.47;5011423;28;20325;-26
2024/02/23 07:01:50;;;;;;;1.73;1.13;;;;;;;19.40;48.21;95792.28;5006214;28;20268;-25
2024/02/23 07:04:17;;;;;;;1.23;1.13;;;;;;;19.42;44.95;95788.03;5011277;28;20228;-25
2024/02/23 07:06:44;;;;;;;2.03;1.40;;;;;;;19.39;45.22;95785.44;5008234;28;20649;-25
2024/02/23 07:09:11;;;;;;;1.30;1.20;;;;;;;19.36;46.05;95782.88;5009095;28;20222;-25
2024/02/23 07:11:38;;;;;;;3.27;1.60;;;;;;;19.35;47.12;95780.31;5006459;28;20210;-25
2024/02/23 07:14:06;;;;;;;1.50;1.40;;;;;;;19.33;47.75;95782.84;5011006;28;20593;-28
2024/02/23 07:16:32;;;;;;;1.40;1.20;;;;;;;19.32;47.53;95785.38;5010738;28;20261;-25
2024/02/23 07:18:59;;;;;;;1.30;1.20;;;;;;;19.31;48.29;95791.31;5012572;28;20608;-25
2024/02/23 07:21:26;;;;;;;1.40;1.30;;;;;;;19.32;48.68;95798.09;5012398;28;20194;-26
2024/02/23 07:23:52;;;;;;;5.33;1.30;;;;;;;19.31;48.79;95804.03;5013584;28;20758;-25
2024/02/23 07:26:22;;;;;;;1.40;1.30;;;;;;;19.31;49.45;95809.13;5012457;28;20198;-25
2024/02/23 07:28:49;;;;;;;1.63;1.20;;;;;;;19.31;49.86;95804.03;5011311;28;20210;-25
2024/02/23 07:31:15;;;;;;;2.43;1.30;;;;;;;19.32;49.87;95815.94;5013659;28;20651;-25
2024/02/23 07:33:42;;;;;;;1.50;1.40;;;;;;;19.33;49.97;95813.41;5003313;28;20581;-27
2024/02/23 07:36:15;;;;;;;1.47;1.37;;;;;;;19.31;50.28;95822.75;5011866;28;20202;-25
2024/02/23 07:38:43;;;;;;;1.10;1.10;;;;;;;19.25;50.25;95812.44;5006574;28;20572;-26
2024/02/23 07:41:11;;;;;;;1.03;1.03;;;;;;;19.33;50.43;95830.41;5014004;28;20250;-25
2024/02/23 07:43:37;;;;;;;1.20;1.10;;;;;;;19.32;50.10;95836.31;5011548;28;20218;-25
2024/02/23 07:46:04;;;;;;;1.13;1.10;;;;;;;19.04;50.44;95788.44;5010630;28;20289;-25
2024/02/23 07:48:31;;;;;;;1.87;1.40;;;;;;;19.31;50.51;95832.06;5012540;28;20226;-25
2024/02/23 07:50:58;;;;;;;1.30;1.20;;;;;;;19.31;50.59;95826.97;5003153;28;20211;-32
2024/02/23 07:53:24;;;;;;;1.27;1.17;;;;;;;19.31;50.68;95822.75;5002536;28;20230;-27
2024/02/23 07:55:51;;;;;;;1.30;1.20;;;;;;;19.27;50.91;95817.59;5004854;28;20569;-25
2024/02/23 07:58:18;;;;;;;1.60;1.30;;;;;;;19.32;50.69;95826.13;5001506;28;20230;-29
2024/02/23 08:00:46;;;;;;;1.10;1.10;;;;;;;19.31;50.85;95832.94;5000624;28;20210;-25
2024/02/23 08:03:13;;;;;;;1.30;1.20;;;;;;;19.33;50.77;95836.31;4998553;28;20245;-28
2024/02/23 08:05:40;;;;;;;1.17;1.10;;;;;;;19.33;50.92;95831.22;5002006;28;20211;-25
2024/02/23 08:08:07;;;;;;;1.10;1.10;;;;;;;19.33;50.96;95825.31;5007962;28;20229;-27
2024/02/23 08:10:33;;;;;;;1.03;1.03;;;;;;;19.33;50.90;95822.75;5008698;28;20255;-26
2024/02/23 08:13:00;;;;;;;1.63;1.20;;;;;;;19.32;50.92;95819.34;5002576;28;20199;-25
2024/02/23 08:15:27;;;;;;;1.00;0.90;;;;;;;19.32;50.96;95816.78;5000130;28;20202;-25
2024/02/23 08:17:54;;;;;;;1.37;1.20;;;;;;;19.31;51.93;95809.13;5003197;28;20316;-26
2024/02/23 08:20:21;;;;;;;1.00;1.00;;;;;;;19.31;51.06;95797.28;5001524;28;20202;-25
2024/02/23 08:22:47;;;;;;;2.33;1.10;;;;;;;19.31;51.25;95792.19;5007623;28;20210;-26
2024/02/23 08:25:14;;;;;;;1.13;1.10;;;;;;;19.34;48.08;95793.88;5003642;28;20665;-25
2024/02/23 08:27:41;;;;;;;1.53;1.10;;;;;;;19.33;46.46;95789.66;5008570;28;20225;-25
2024/02/23 08:30:08;;;;;;;1.30;1.20;;;;;;;19.34;45.65;95804.94;5003982;28;20289;-26
2024/02/23 08:32:35;;;;;;;1.30;1.20;;;;;;;19.33;44.84;95820.22;5004275;28;20702;-25
2024/02/23 08:35:02;;;;;;;1.40;1.20;;;;;;;19.29;44.19;95814.22;5005629;28;20210;-31
2024/02/23 08:37:29;;;;;;;1.33;1.23;;;;;;;19.25;44.03;95819.22;5000294;28;20236;-25
2024/02/23 08:39:56;;;;;;;2.37;1.37;;;;;;;19.20;44.92;95810.66;5007339;28;20242;-25
2024/02/23 08:42:23;;;;;;;2.57;1.23;;;;;;;19.15;45.85;95815.72;4996015;28;20198;-25
2024/02/23 08:44:49;;;;;;;1.33;1.23;;;;;;;19.15;46.24;95819.94;5005217;28;20328;-25
2024/02/23 08:47:16;;;;;;;1.27;1.20;;;;;;;19.10;46.97;95814.78;5007019;28;20594;-32
2024/02/23 08:49:43;;;;;;;1.53;1.17;;;;;;;19.15;46.17;95818.25;5005439;28;20210;-26
2024/02/23 08:52:10;;;;;;;1.53;1.40;;;;;;;19.15;46.13;95822.47;5004317;28;20202;-25
2024/02/23 08:54:37;;;;;;;2.83;1.50;;;;;;;19.16;47.26;95827.59;5004847;28;20206;-29
2024/02/23 08:57:04;;;;;;;1.80;1.30;;;;;;;19.16;47.71;95827.59;5004011;28;20238;-25
2024/02/23 08:59:30;;;;;;;1.30;1.23;;;;;;;19.16;48.10;95831.84;5005991;28;20217;-25
2024/02/23 09:01:59;;;;;;;1.37;1.27;;;;;;;19.19;48.52;95842.91;5006095;28;20202;-26
2024/02/23 09:04:26;;;;;;;1.70;1.60;;;;;;;19.20;48.60;95839.53;5004832;28;20246;-29
2024/02/23 09:06:53;;;;;;;1.30;1.20;;;;;;;19.22;49.04;95844.66;5000975;28;20735;-25
2024/02/23 09:09:20;;;;;;;1.30;1.20;;;;;;;19.21;49.27;95846.34;5002897;28;20209;-25
2024/02/23 09:11:47;;;;;;;1.07;1.00;;;;;;;19.21;49.19;95846.34;5008764;28;20263;-27
2024/02/23 09:14:13;;;;;;;1.60;1.50;;;;;;;19.25;49.45;95850.66;5003176;28;20214;-25
2024/02/23 09:16:40;;;;;;;1.20;1.10;;;;;;;19.19;48.95;95836.97;5000875;28;20660;-29
2024/02/23 09:19:06;;;;;;;1.80;1.33;;;;;;;19.27;49.60;95860.88;5002284;28;20194;-25
2024/02/23 09:21:33;;;;;;;1.40;1.30;;;;;;;19.25;49.36;95863.38;5008719;28;20206;-26
2024/02/23 09:24:00;;;;;;;1.47;1.10;;;;;;;19.25;49.46;95868.47;5006962;28;20214;-30
2024/02/23 09:26:26;;;;;;;1.07;1.07;;;;;;;19.25;49.26;95876.13;5006384;28;20202;-25
2024/02/23 09:28:53;;;;;;;1.30;1.20;;;;;;;19.24;49.37;95873.53;4997664;28;20261;-26
2024/02/23 09:31:20;;;;;;;1.70;1.23;;;;;;;19.26;49.55;95872.72;4998932;28;20656;-26
2024/02/23 09:33:48;;;;;;;1.13;1.10;;;;;;;19.27;49.50;95855.78;5003217;28;20402;-25
2024/02/23 09:36:15;;;;;;;1.10;1.10;;;;;;;19.28;49.59;95862.59;5007082;28;20293;-26
2024/02/23 09:38:42;;;;;;;1.00;1.00;;;;;;;19.26;50.13;95867.63;5005563;28;20289;-28
2024/02/23 09:41:19;;;;;;;1.13;1.13;;;;;;;19.27;49.72;95873.63;5009283;28;20589;-26
2024/02/23 09:43:46;;;;;;;1.00;1.00;;;;;;;19.30;49.77;95878.75;5005542;28;20225;-26
2024/02/23 09:46:14;;;;;;;1.27;1.17;;;;;;;19.30;49.72;95873.66;5005224;28;21004;-25
2024/02/23 09:48:43;;;;;;;1.10;1.10;;;;;;;19.30;49.77;95863.47;5003191;28;20211;-26
2024/02/23 09:51:11;;;;;;;1.10;1.10;;;;;;;19.31;49.93;95862.63;5000945;28;20202;-26
2024/02/23 09:53:38;;;;;;;1.37;1.10;;;;;;;19.30;49.83;95861.75;4997524;28;20207;-34
2024/02/23 09:56:05;;;;;;;1.00;1.00;;;;;;;19.31;49.83;95865.16;5002550;28;20202;-25
2024/02/23 09:58:32;;;;;;;1.30;1.20;;;;;;;19.33;49.92;95863.50;5012152;28;20229;-26
2024/02/23 10:00:59;;;;;;;1.20;1.10;;;;;;;19.31;49.66;95860.06;5000258;28;20293;-26
2024/02/23 10:03:28;;;;;;;1.00;1.00;;;;;;;19.31;50.06;95844.78;5004725;28;20210;-28
2024/02/23 10:05:55;;;;;;;1.00;1.00;;;;;;;19.31;49.88;95844.78;5004256;28;20202;-26
2024/02/23 10:08:22;;;;;;;1.13;1.00;;;;;;;19.31;49.91;95852.44;5006350;28;20226;-25
2024/02/23 10:10:50;;;;;;;1.00;1.00;;;;;;;19.30;49.98;95854.13;5011747;28;20813;-25
2024/02/23 10:13:20;;;;;;;2.40;1.10;;;;;;;19.30;49.55;95851.56;5006042;28;20206;-25
2024/02/23 10:15:47;;;;;;;1.23;1.13;;;;;;;19.30;49.76;95855.84;5005153;28;20301;-27
2024/02/23 10:18:34;;;;;;;1.10;0.97;;;;;;;19.30;50.33;95851.56;5006553;28;20238;-26
2024/02/23 10:21:01;;;;;;;1.10;1.10;;;;;;;19.31;50.01;95858.41;5006793;28;20622;-25
2024/02/23 10:23:27;;;;;;;1.00;1.00;;;;;;;19.32;50.17;95866.88;5006497;28;20209;-25
2024/02/23 10:25:54;;;;;;;1.20;1.10;;;;;;;19.33;50.35;95868.59;4984842;28;20233;-26
2024/02/23 10:28:22;;;;;;;1.10;1.10;;;;;;;19.34;50.10;95860.97;5005346;28;20223;-27
2024/02/23 10:30:49;;;;;;;1.20;1.10;;;;;;;19.33;50.39;95855.88;5002799;28;20280;-25
2024/02/23 10:33:15;;;;;;;1.00;1.00;;;;;;;19.36;50.30;95850.81;5003062;28;20287;-25
2024/02/23 10:35:42;;;;;;;1.17;1.10;;;;;;;19.33;50.24;95863.50;5014965;28;20294;-26
2024/02/23 10:38:11;;;;;;;1.20;1.10;;;;;;;19.34;50.21;95876.25;5005079;28;20227;-25
2024/02/23 10:40:40;;;;;;;1.10;1.10;;;;;;;19.32;50.26;95874.50;5005529;28;20221;-27
2024/02/23 10:43:13;;;;;;;1.30;1.20;;;;;;;19.31;50.39;95865.16;5007145;28;20210;-26
2024/02/23 10:45:39;;;;;;;1.20;1.10;;;;;;;19.31;50.26;95866.03;5006612;28;20296;-26
2024/02/23 10:48:09;;;;;;;1.00;1.00;;;;;;;19.31;50.69;95867.72;5014291;28;20226;-25
2024/02/23 10:50:37;;;;;;;1.23;1.10;;;;;;;19.32;50.47;95867.72;5007906;28;20241;-28
2024/02/23 10:53:04;;;;;;;2.00;1.30;;;;;;;19.31;50.54;95865.16;5010535;28;20207;-26
2024/02/23 10:55:31;;;;;;;1.00;1.00;;;;;;;19.29;50.48;95857.50;5004034;28;20207;-25
2024/02/23 10:57:57;;;;;;;1.50;1.40;;;;;;;19.30;50.49;95859.22;4999282;28;20226;-25
2024/02/23 11:00:25;;;;;;;1.20;1.10;;;;;;;19.34;50.60;95857.56;5010026;28;20234;-25
2024/02/23 11:02:52;;;;;;;1.30;1.20;;;;;;;19.32;50.70;95865.19;5011048;28;20734;-26
2024/02/23 11:05:19;;;;;;;1.30;1.20;;;;;;;19.33;50.56;95858.41;4989826;28;20222;-25
2024/02/23 11:07:49;;;;;;;1.67;1.27;;;;;;;19.35;50.69;95861.81;5008397;28;20233;-25
2024/02/23 11:10:15;;;;;;;1.10;1.00;;;;;;;19.33;50.64;95848.22;5001440;28;20217;-26
2024/02/23 11:12:43;;;;;;;1.30;1.20;;;;;;;19.28;50.77;95837.97;5010854;28;20293;-27
2024/02/23 11:15:10;;;;;;;1.23;1.10;;;;;;;19.34;51.12;95858.44;5002783;28;20195;-25
2024/02/23 11:17:38;;;;;;;1.37;1.13;;;;;;;19.33;50.69;95858.41;5001925;28;20266;-27
2024/02/23 11:20:06;;;;;;;1.00;1.00;;;;;;;19.31;50.84;95858.41;5011726;28;20202;-27
2024/02/23 11:22:35;;;;;;;1.10;1.10;;;;;;;19.30;50.74;95855.84;5010179;28;20695;-25
2024/02/23 11:25:05;;;;;;;1.33;1.20;;;;;;;19.32;50.82;95859.22;5009816;28;20281;-27
2024/02/23 11:27:33;;;;;;;1.20;1.10;;;;;;;19.32;50.85;95861.78;5010658;28;20218;-28
2024/02/23 11:30:05;;;;;;;1.30;1.20;;;;;;;19.30;50.81;95850.72;5007863;28;20335;-31
2024/02/23 11:32:47;;;;;;;1.00;1.00;;;;;;;19.32;50.91;95851.59;5009291;28;20213;-26